Terminal Aerodrome Forecast
Issued by NWS

Current Version | Previous Version | Text Only | Print | Product List | Glossary On
Versions: 1 2 3 4 5 6 7 8 9 10 11 12 13 14 15 16 17 18 19 20 21
000
FTUS44 KLZK 020800 AAA
TAFPBF
TAF AMD
KPBF 020842Z 0209/0306 VRB04KT P6SM BKN025
      TEMPO 0209/0213 OVC009
     FM021400 18007KT P6SM BKN025 OVC050
     FM021800 19008G16KT P6SM VCTS BKN050CB=

USA.gov is the U.S. government's official web portal to all federal, state and local government web resources and services.